Time;durP1;ratioP1;P1;durP2;ratioP2;P2;SDS_P1;SDS_P2;PMS_P1;PMS_P2;Temp;Humidity;BMP_temperature;BMP_pressure;BME280_temperature;BME280_humidity;BME280_pressure;Samples;Min_cycle;Max_cycle;Signal;HPM_P1;HPM_P2
2022/05/13 00:00:46;;;;;;;4.43;1.60;;;;;;;;;;4995049;28;20054;-87
2022/05/13 00:03:14;;;;;;;5.28;1.40;;;;;;;;;;4981266;28;20397;-88
2022/05/13 00:05:46;;;;;;;3.17;1.40;;;;;;;;;;4995712;28;20054;-88
2022/05/13 00:08:29;;;;;;;7.03;1.73;;;;;;;;;;5014591;28;20061;-88
2022/05/13 00:11:08;;;;;;;4.85;1.70;;;;;;;;;;4976752;28;20077;-89
2022/05/13 00:13:37;;;;;;;7.03;1.50;;;;;;;;;;4992028;28;20051;-89
2022/05/13 00:16:05;;;;;;;4.22;1.42;;;;;;;;;;4997491;28;20144;-89
2022/05/13 00:18:34;;;;;;;5.80;1.50;;;;;;;;;;4974522;28;20058;-89
2022/05/13 00:21:02;;;;;;;7.70;1.70;;;;;;;;;;4975812;28;20663;-90
2022/05/13 00:23:30;;;;;;;4.35;1.65;;;;;;;;;;4995123;28;20560;-90
2022/05/13 00:25:58;;;;;;;4.75;1.60;;;;;;;;;;4991280;28;20054;-89
2022/05/13 00:28:26;;;;;;;6.68;1.50;;;;;;;;;;4987787;28;20054;-89
2022/05/13 00:30:54;;;;;;;7.38;1.38;;;;;;;;;;4980271;28;20049;-89
2022/05/13 00:33:22;;;;;;;5.30;1.50;;;;;;;;;;4996628;28;20093;-89
2022/05/13 00:35:50;;;;;;;7.47;1.67;;;;;;;;;;4980749;28;20124;-89
2022/05/13 00:38:18;;;;;;;4.93;1.50;;;;;;;;;;4967873;28;20137;-89
2022/05/13 00:40:46;;;;;;;6.63;1.63;;;;;;;;;;4977590;28;20606;-89
2022/05/13 00:43:35;;;;;;;5.75;1.60;;;;;;;;;;4998178;23;20056;-91
2022/05/13 00:46:03;;;;;;;8.93;2.13;;;;;;;;;;4995247;28;20855;-92
2022/05/13 00:48:34;;;;;;;5.70;2.13;;;;;;;;;;4979776;28;20053;-91
2022/05/13 00:51:05;;;;;;;5.18;2.13;;;;;;;;;;4966490;28;20062;-91
2022/05/13 00:53:34;;;;;;;7.65;1.73;;;;;;;;;;4995952;28;20111;-91
2022/05/13 00:56:03;;;;;;;7.18;1.63;;;;;;;;;;4988815;28;20052;-91
2022/05/13 00:58:37;;;;;;;5.93;1.70;;;;;;;;;;4994277;28;20549;-92
2022/05/13 01:01:07;;;;;;;5.38;1.58;;;;;;;;;;4980026;28;20073;-91
2022/05/13 01:03:38;;;;;;;4.93;1.80;;;;;;;;;;4993232;28;20099;-92
2022/05/13 01:06:13;;;;;;;4.30;1.48;;;;;;;;;;5005265;28;20475;-92
2022/05/13 01:08:40;;;;;;;6.15;1.88;;;;;;;;;;4980222;28;20054;-91
2022/05/13 01:11:12;;;;;;;5.88;1.63;;;;;;;;;;5004729;28;20097;-91
2022/05/13 01:13:51;;;;;;;4.28;1.77;;;;;;;;;;5007759;28;20026;-92
2022/05/13 01:16:18;;;;;;;4.85;1.77;;;;;;;;;;5017482;28;20031;-91
2022/05/13 01:18:46;;;;;;;7.97;1.73;;;;;;;;;;5026790;28;20061;-91
2022/05/13 01:21:20;;;;;;;3.70;1.40;;;;;;;;;;5006786;28;20042;-91
2022/05/13 01:23:50;;;;;;;3.60;1.60;;;;;;;;;;5008489;28;20065;-92
2022/05/13 01:26:22;;;;;;;5.80;1.80;;;;;;;;;;4965620;28;20056;-91
2022/05/13 01:28:53;;;;;;;5.22;1.73;;;;;;;;;;4997108;28;20064;-92
2022/05/13 01:31:32;;;;;;;5.13;1.92;;;;;;;;;;4993948;28;20065;-92
2022/05/13 01:34:03;;;;;;;4.57;1.63;;;;;;;;;;4975860;28;20057;-91
2022/05/13 01:36:32;;;;;;;5.75;1.70;;;;;;;;;;4964403;28;20057;-90
2022/05/13 01:39:00;;;;;;;8.80;2.10;;;;;;;;;;4978046;28;20050;-92
2022/05/13 01:41:28;;;;;;;7.25;1.77;;;;;;;;;;4995349;28;20050;-91
2022/05/13 01:43:56;;;;;;;4.97;1.95;;;;;;;;;;4995203;28;20450;-92
2022/05/13 01:46:25;;;;;;;4.70;1.80;;;;;;;;;;4976176;28;20136;-91
2022/05/13 01:48:55;;;;;;;6.05;2.10;;;;;;;;;;4979142;28;20050;-90
2022/05/13 01:51:22;;;;;;;6.40;2.25;;;;;;;;;;4995023;28;20141;-92
2022/05/13 01:53:50;;;;;;;3.88;1.67;;;;;;;;;;5003264;28;20104;-92
2022/05/13 01:56:18;;;;;;;5.93;2.30;;;;;;;;;;5009787;28;20920;-92
2022/05/13 01:58:47;;;;;;;7.43;2.67;;;;;;;;;;4992001;28;20050;-92
2022/05/13 02:01:14;;;;;;;8.65;2.40;;;;;;;;;;4994992;28;20060;-92
2022/05/13 02:03:45;;;;;;;6.30;1.90;;;;;;;;;;4991995;28;20038;-91
2022/05/13 02:06:18;;;;;;;10.93;2.03;;;;;;;;;;4962941;28;20127;-92
2022/05/13 02:08:46;;;;;;;4.65;2.03;;;;;;;;;;5009788;28;20141;-91
2022/05/13 02:11:14;;;;;;;3.78;1.95;;;;;;;;;;4994190;28;20054;-91
2022/05/13 02:13:42;;;;;;;3.33;1.52;;;;;;;;;;4980029;28;20380;-91
2022/05/13 02:16:12;;;;;;;3.95;2.00;;;;;;;;;;4992885;28;20056;-91
2022/05/13 02:18:40;;;;;;;5.03;2.10;;;;;;;;;;5009436;28;20050;-90
2022/05/13 02:21:08;;;;;;;6.05;2.10;;;;;;;;;;4977570;28;20077;-92
2022/05/13 02:23:37;;;;;;;4.68;2.00;;;;;;;;;;4963174;28;20104;-91
2022/05/13 02:26:06;;;;;;;5.97;2.00;;;;;;;;;;5007023;28;20508;-91
2022/05/13 02:28:34;;;;;;;6.35;2.05;;;;;;;;;;4962716;28;20141;-91
2022/05/13 02:31:02;;;;;;;5.20;2.05;;;;;;;;;;5009320;28;20042;-92
2022/05/13 02:33:31;;;;;;;5.88;1.98;;;;;;;;;;4991825;28;20184;-92
2022/05/13 02:36:02;;;;;;;8.73;2.55;;;;;;;;;;4994747;28;20136;-91
2022/05/13 02:38:30;;;;;;;4.43;1.83;;;;;;;;;;4997447;28;20514;-91
2022/05/13 02:41:14;;;;;;;6.38;2.00;;;;;;;;;;4982977;28;20042;-92
2022/05/13 02:43:53;;;;;;;5.78;2.10;;;;;;;;;;4979283;28;20046;-92
2022/05/13 02:46:28;;;;;;;10.65;3.80;;;;;;;;;;5002051;28;20128;-90
2022/05/13 02:48:56;;;;;;;9.00;2.67;;;;;;;;;;4983462;28;20407;-91
2022/05/13 02:51:24;;;;;;;5.57;2.35;;;;;;;;;;4973874;28;20112;-91
2022/05/13 02:53:52;;;;;;;6.32;2.40;;;;;;;;;;4993813;28;20062;-92
2022/05/13 02:56:20;;;;;;;7.20;2.33;;;;;;;;;;5006946;28;20559;-91
2022/05/13 02:58:48;;;;;;;7.63;2.97;;;;;;;;;;4985987;28;20116;-91
2022/05/13 03:01:17;;;;;;;8.60;2.70;;;;;;;;;;5014073;28;20065;-91
2022/05/13 03:03:48;;;;;;;10.43;2.25;;;;;;;;;;5006490;28;20043;-91
2022/05/13 03:06:17;;;;;;;8.00;2.40;;;;;;;;;;4977160;28;20124;-90
2022/05/13 03:08:47;;;;;;;3.88;2.28;;;;;;;;;;4997864;28;20046;-91
2022/05/13 03:11:14;;;;;;;6.00;2.20;;;;;;;;;;4997532;28;20054;-91
2022/05/13 03:13:42;;;;;;;5.00;2.17;;;;;;;;;;5005215;28;20069;-92
2022/05/13 03:16:14;;;;;;;6.25;2.10;;;;;;;;;;5006460;28;20084;-91
2022/05/13 03:18:42;;;;;;;5.32;2.20;;;;;;;;;;4981533;28;20415;-91
2022/05/13 03:21:10;;;;;;;4.47;2.30;;;;;;;;;;4989259;28;20145;-92
2022/05/13 03:23:38;;;;;;;7.00;2.25;;;;;;;;;;4996465;28;20081;-91
2022/05/13 03:26:06;;;;;;;5.72;2.20;;;;;;;;;;4980943;28;20456;-91
2022/05/13 03:28:34;;;;;;;6.72;2.22;;;;;;;;;;4998513;28;20054;-91
2022/05/13 03:31:02;;;;;;;6.95;2.35;;;;;;;;;;4992241;28;20050;-92
2022/05/13 03:33:30;;;;;;;5.85;2.60;;;;;;;;;;4996035;28;20046;-91
2022/05/13 03:35:58;;;;;;;4.03;2.20;;;;;;;;;;5007922;28;20388;-91
2022/05/13 03:38:26;;;;;;;5.47;2.47;;;;;;;;;;4996509;28;20053;-90
2022/05/13 03:40:54;;;;;;;6.28;2.58;;;;;;;;;;4993071;28;20085;-92
2022/05/13 03:43:22;;;;;;;3.83;2.30;;;;;;;;;;4997667;28;20077;-91
2022/05/13 03:45:50;;;;;;;7.88;2.90;;;;;;;;;;5005742;28;20050;-91
2022/05/13 03:48:18;;;;;;;5.65;2.47;;;;;;;;;;4993490;28;20046;-91
2022/05/13 03:50:46;;;;;;;6.32;2.60;;;;;;;;;;5006360;28;20053;-91
2022/05/13 03:53:14;;;;;;;5.43;2.67;;;;;;;;;;5012325;28;20546;-91
2022/05/13 03:55:42;;;;;;;10.82;3.00;;;;;;;;;;4979188;28;20068;-91
2022/05/13 03:58:10;;;;;;;7.38;2.35;;;;;;;;;;4981055;28;20070;-91
2022/05/13 04:00:38;;;;;;;8.63;2.78;;;;;;;;;;5011383;28;20099;-90
2022/05/13 04:03:06;;;;;;;6.80;2.55;;;;;;;;;;4965180;28;20412;-92
2022/05/13 04:11:10;;;;;;;11.27;2.97;;;;;;;;;;4997408;28;20050;-91
2022/05/13 04:16:24;;;;;;;6.68;2.92;;;;;;;;;;5012340;28;20052;-83
2022/05/13 04:18:53;;;;;;;8.50;2.92;;;;;;;;;;4997787;28;20119;-83
2022/05/13 04:21:23;;;;;;;9.50;2.80;;;;;;;;;;5014705;28;20295;-81
2022/05/13 04:23:54;;;;;;;7.95;2.88;;;;;;;;;;5007950;28;20050;-91
2022/05/13 04:26:22;;;;;;;8.95;3.28;;;;;;;;;;4997103;28;20145;-90
2022/05/13 04:28:51;;;;;;;9.32;3.17;;;;;;;;;;4995280;28;20141;-92
2022/05/13 04:31:23;;;;;;;7.13;3.05;;;;;;;;;;4980520;28;20050;-91
2022/05/13 04:33:51;;;;;;;7.40;3.25;;;;;;;;;;4996209;28;20060;-90
2022/05/13 04:36:19;;;;;;;11.88;2.88;;;;;;;;;;5020608;28;20057;-90
2022/05/13 04:38:46;;;;;;;11.85;4.90;;;;;;;;;;5026251;28;20522;-90
2022/05/13 04:44:01;;;;;;;11.57;3.35;;;;;;;;;;4995548;28;20073;-89
2022/05/13 04:46:28;;;;;;;9.27;3.00;;;;;;;;;;5012021;28;20050;-89
2022/05/13 04:48:56;;;;;;;6.43;3.08;;;;;;;;;;4995461;28;20043;-90
2022/05/13 04:51:25;;;;;;;7.15;3.33;;;;;;;;;;4996301;28;20049;-89
2022/05/13 04:53:54;;;;;;;9.07;2.85;;;;;;;;;;4979953;28;20046;-89
2022/05/13 04:56:23;;;;;;;6.03;2.70;;;;;;;;;;5012228;28;20127;-89
2022/05/13 04:58:52;;;;;;;5.82;2.72;;;;;;;;;;4997980;28;20038;-90
2022/05/13 05:01:21;;;;;;;10.68;3.13;;;;;;;;;;4995629;28;20058;-79
2022/05/13 05:03:50;;;;;;;6.15;2.88;;;;;;;;;;5012081;28;20143;-80
2022/05/13 05:06:19;;;;;;;13.32;3.28;;;;;;;;;;5008548;28;20049;-81
2022/05/13 05:08:48;;;;;;;10.90;2.78;;;;;;;;;;5010661;28;20045;-81
2022/05/13 05:11:17;;;;;;;8.43;2.90;;;;;;;;;;5010788;28;20056;-81
2022/05/13 05:13:49;;;;;;;7.43;2.53;;;;;;;;;;5010894;28;20065;-81
2022/05/13 05:16:21;;;;;;;9.65;3.30;;;;;;;;;;5010715;28;20530;-80
2022/05/13 05:18:50;;;;;;;10.98;3.15;;;;;;;;;;5010604;28;20160;-82
2022/05/13 05:21:18;;;;;;;13.70;3.95;;;;;;;;;;4990056;28;20148;-83
2022/05/13 05:23:46;;;;;;;9.00;3.30;;;;;;;;;;5005880;28;20049;-83
2022/05/13 05:26:14;;;;;;;6.07;2.53;;;;;;;;;;5012253;28;20052;-83
2022/05/13 05:28:42;;;;;;;9.23;3.13;;;;;;;;;;5012809;28;20503;-82
2022/05/13 05:31:12;;;;;;;11.00;3.25;;;;;;;;;;4988519;28;20053;-81
2022/05/13 05:33:42;;;;;;;10.07;3.10;;;;;;;;;;5009079;28;20108;-82
2022/05/13 05:36:10;;;;;;;6.57;2.80;;;;;;;;;;5006829;28;20062;-83
2022/05/13 05:38:38;;;;;;;4.93;2.88;;;;;;;;;;4994407;28;20060;-83
2022/05/13 05:41:06;;;;;;;6.90;2.72;;;;;;;;;;5010328;28;20057;-79
2022/05/13 05:43:35;;;;;;;9.60;2.90;;;;;;;;;;5013187;28;20137;-82
2022/05/13 05:46:06;;;;;;;5.45;2.83;;;;;;;;;;5010301;28;20456;-83
2022/05/13 05:48:34;;;;;;;7.05;2.95;;;;;;;;;;4994255;28;20507;-82
2022/05/13 05:51:02;;;;;;;5.53;2.80;;;;;;;;;;5010905;28;20065;-83
2022/05/13 05:59:05;;;;;;;6.78;2.25;;;;;;;;;;5011913;28;20129;-82
2022/05/13 06:01:32;;;;;;;6.00;2.70;;;;;;;;;;5010790;28;20583;-82
2022/05/13 06:04:00;;;;;;;9.02;2.40;;;;;;;;;;5015457;28;20105;-83
2022/05/13 06:06:28;;;;;;;6.13;2.55;;;;;;;;;;4996586;28;20050;-82
2022/05/13 06:09:00;;;;;;;5.00;2.33;;;;;;;;;;4994267;28;20050;-83
2022/05/13 06:11:28;;;;;;;10.73;2.30;;;;;;;;;;4990198;28;20120;-82
2022/05/13 06:13:58;;;;;;;4.18;2.20;;;;;;;;;;4995010;28;20100;-82
2022/05/13 06:16:28;;;;;;;6.63;2.15;;;;;;;;;;5012259;28;20053;-82
2022/05/13 06:19:02;;;;;;;6.85;2.10;;;;;;;;;;5021034;28;20029;-82
2022/05/13 06:21:33;;;;;;;5.57;3.10;;;;;;;;;;5036603;28;20022;-84
2022/05/13 06:24:00;;;;;;;5.22;2.42;;;;;;;;;;4977794;28;20093;-82
2022/05/13 06:26:28;;;;;;;7.18;2.30;;;;;;;;;;5013891;28;20050;-82
2022/05/13 06:28:56;;;;;;;6.57;2.28;;;;;;;;;;5014436;28;20129;-82
2022/05/13 06:31:25;;;;;;;8.85;2.40;;;;;;;;;;5011083;28;20104;-82
2022/05/13 06:33:52;;;;;;;10.73;2.80;;;;;;;;;;5010427;28;20062;-82
2022/05/13 06:36:20;;;;;;;6.22;2.35;;;;;;;;;;5012865;28;20053;-82
2022/05/13 06:38:48;;;;;;;7.93;2.40;;;;;;;;;;5014142;28;20046;-83
2022/05/13 06:41:16;;;;;;;6.70;2.33;;;;;;;;;;4992673;28;20119;-83
2022/05/13 06:43:45;;;;;;;6.80;2.63;;;;;;;;;;5010231;28;20129;-83
2022/05/13 06:46:12;;;;;;;6.53;2.50;;;;;;;;;;5007608;28;20061;-83
2022/05/13 06:48:47;;;;;;;7.10;2.95;;;;;;;;;;5020027;28;20671;-82
2022/05/13 06:51:17;;;;;;;6.85;2.55;;;;;;;;;;5007198;28;20053;-83
2022/05/13 06:53:44;;;;;;;8.98;2.72;;;;;;;;;;5016387;28;20133;-82
2022/05/13 06:56:12;;;;;;;4.72;2.20;;;;;;;;;;5006630;28;20060;-82
2022/05/13 06:58:40;;;;;;;6.70;3.13;;;;;;;;;;5014618;28;20882;-82
2022/05/13 07:01:11;;;;;;;9.02;2.92;;;;;;;;;;5006611;28;20287;-83
2022/05/13 07:03:38;;;;;;;9.90;2.80;;;;;;;;;;5008174;28;20142;-82
2022/05/13 07:06:06;;;;;;;8.70;2.92;;;;;;;;;;5007115;28;20068;-83
2022/05/13 07:08:34;;;;;;;9.15;3.00;;;;;;;;;;4997131;28;20054;-82
2022/05/13 07:11:02;;;;;;;6.35;2.53;;;;;;;;;;5004818;28;20058;-83
2022/05/13 07:13:30;;;;;;;8.95;2.85;;;;;;;;;;5005538;28;20856;-82
2022/05/13 07:15:59;;;;;;;8.75;3.22;;;;;;;;;;5012588;28;20042;-82
2022/05/13 07:18:29;;;;;;;9.18;2.85;;;;;;;;;;5011845;28;20093;-83
2022/05/13 07:20:58;;;;;;;9.95;3.67;;;;;;;;;;5005275;28;20058;-83
2022/05/13 07:23:26;;;;;;;8.27;3.13;;;;;;;;;;4992015;28;20927;-82
2022/05/13 07:25:54;;;;;;;7.97;2.83;;;;;;;;;;4999323;28;20939;-83
2022/05/13 07:28:22;;;;;;;10.70;2.83;;;;;;;;;;5014168;28;20064;-82
2022/05/13 07:30:50;;;;;;;10.63;3.17;;;;;;;;;;4997040;28;20061;-82
2022/05/13 07:33:18;;;;;;;10.07;3.72;;;;;;;;;;5012776;28;20046;-83
2022/05/13 07:35:46;;;;;;;9.90;3.38;;;;;;;;;;5014208;28;20097;-82
2022/05/13 07:38:15;;;;;;;8.32;3.10;;;;;;;;;;5012386;28;20128;-82
2022/05/13 07:43:32;;;;;;;8.13;3.15;;;;;;;;;;5008574;28;20042;-83
2022/05/13 07:46:02;;;;;;;7.53;3.38;;;;;;;;;;5012979;28;20458;-83
2022/05/13 07:48:32;;;;;;;9.68;3.22;;;;;;;;;;4996773;28;20562;-83
2022/05/13 07:51:02;;;;;;;13.45;3.53;;;;;;;;;;5007249;28;20173;-84
2022/05/13 07:53:37;;;;;;;9.60;3.50;;;;;;;;;;4998917;28;20056;-83
2022/05/13 07:56:05;;;;;;;10.80;3.00;;;;;;;;;;4997068;28;20555;-83
2022/05/13 07:58:33;;;;;;;8.50;3.55;;;;;;;;;;5013236;28;20058;-83
2022/05/13 08:01:03;;;;;;;9.48;3.25;;;;;;;;;;4995063;28;20058;-83
2022/05/13 08:03:32;;;;;;;7.78;3.30;;;;;;;;;;4995598;28;20148;-84
2022/05/13 08:06:03;;;;;;;8.77;3.60;;;;;;;;;;4995837;28;20054;-82
2022/05/13 08:08:39;;;;;;;8.02;3.33;;;;;;;;;;4998654;28;20133;-82
2022/05/13 08:11:11;;;;;;;9.52;4.07;;;;;;;;;;4971309;28;20056;-82
2022/05/13 08:13:39;;;;;;;7.97;3.90;;;;;;;;;;5014029;28;20068;-83
2022/05/13 08:16:09;;;;;;;11.65;3.83;;;;;;;;;;4989294;28;20066;-82
2022/05/13 08:18:39;;;;;;;13.88;3.60;;;;;;;;;;5013770;28;20052;-84
2022/05/13 08:21:08;;;;;;;8.80;3.33;;;;;;;;;;4977599;28;20050;-83
2022/05/13 08:23:36;;;;;;;11.35;3.70;;;;;;;;;;4997147;28;20503;-83
2022/05/13 08:26:05;;;;;;;13.32;3.70;;;;;;;;;;5026780;28;20033;-83
2022/05/13 08:28:34;;;;;;;8.43;3.42;;;;;;;;;;5035842;28;20042;-82
2022/05/13 08:31:02;;;;;;;9.25;4.45;;;;;;;;;;5010752;28;20049;-82
2022/05/13 08:33:30;;;;;;;12.05;4.20;;;;;;;;;;5015401;28;20038;-82
2022/05/13 08:36:01;;;;;;;11.18;3.67;;;;;;;;;;5014917;28;20046;-82
2022/05/13 08:38:31;;;;;;;10.15;3.60;;;;;;;;;;5011328;28;20136;-82
2022/05/13 08:41:10;;;;;;;11.82;3.83;;;;;;;;;;4999601;28;20565;-82
2022/05/13 08:43:41;;;;;;;10.95;3.70;;;;;;;;;;5016698;28;20136;-83
2022/05/13 08:46:16;;;;;;;10.23;3.88;;;;;;;;;;4997612;28;20050;-83
2022/05/13 08:48:54;;;;;;;12.35;3.95;;;;;;;;;;4994073;28;20506;-83
2022/05/13 08:51:30;;;;;;;10.60;3.28;;;;;;;;;;5007198;28;20061;-82
2022/05/13 08:54:18;;;;;;;10.70;3.35;;;;;;;;;;5000544;28;20497;-83
2022/05/13 08:56:52;;;;;;;13.98;4.57;;;;;;;;;;5016297;28;20113;-82
2022/05/13 08:59:24;;;;;;;13.82;3.95;;;;;;;;;;5001396;28;20068;-84
2022/05/13 09:02:06;;;;;;;10.77;3.88;;;;;;;;;;5008475;28;20053;-83
2022/05/13 09:04:34;;;;;;;16.98;4.00;;;;;;;;;;4993364;28;21969;-82
2022/05/13 09:07:06;;;;;;;17.30;4.10;;;;;;;;;;5015813;28;20048;-82
2022/05/13 09:09:35;;;;;;;8.95;3.80;;;;;;;;;;4984123;28;20053;-82
2022/05/13 09:12:17;;;;;;;11.52;3.85;;;;;;;;;;5015505;28;20073;-82
2022/05/13 09:14:46;;;;;;;17.17;4.30;;;;;;;;;;5015150;28;20499;-83
2022/05/13 09:17:34;;;;;;;10.15;4.13;;;;;;;;;;4982520;28;20045;-82
2022/05/13 09:20:20;;;;;;;11.13;3.97;;;;;;;;;;5016799;28;20045;-83
2022/05/13 09:22:58;;;;;;;9.70;3.50;;;;;;;;;;4999366;28;20045;-82
2022/05/13 09:25:35;;;;;;;17.10;3.88;;;;;;;;;;4982847;28;20060;-82
2022/05/13 09:28:10;;;;;;;22.83;4.90;;;;;;;;;;4977329;28;20058;-83
2022/05/13 09:30:42;;;;;;;7.82;3.58;;;;;;;;;;5009590;28;20423;-83
2022/05/13 09:33:31;;;;;;;11.60;3.92;;;;;;;;;;5017600;28;20053;-82
2022/05/13 09:36:06;;;;;;;13.10;3.80;;;;;;;;;;4992134;28;20053;-82
2022/05/13 09:38:47;;;;;;;14.45;3.83;;;;;;;;;;4988220;28;20050;-83
2022/05/13 09:41:26;;;;;;;11.68;3.70;;;;;;;;;;4999368;28;20102;-83
2022/05/13 09:44:04;;;;;;;8.05;3.33;;;;;;;;;;5011785;28;20084;-84
2022/05/13 09:46:37;;;;;;;11.27;3.70;;;;;;;;;;5018301;28;20053;-83
2022/05/13 09:49:16;;;;;;;11.52;3.58;;;;;;;;;;5026167;28;20038;-83
2022/05/13 09:52:26;;;;;;;10.27;3.88;;;;;;;;;;5022639;28;20056;-83
2022/05/13 09:54:56;;;;;;;9.35;3.15;;;;;;;;;;4995410;28;20069;-83
2022/05/13 09:57:31;;;;;;;9.90;3.63;;;;;;;;;;4976794;28;20049;-83
2022/05/13 10:00:18;;;;;;;12.88;3.70;;;;;;;;;;4999629;28;20062;-82
2022/05/13 10:02:48;;;;;;;11.52;2.90;;;;;;;;;;5015751;28;20072;-83
2022/05/13 10:05:23;;;;;;;9.23;3.90;;;;;;;;;;5008277;28;20046;-83
2022/05/13 10:07:53;;;;;;;10.23;3.25;;;;;;;;;;5009326;28;20103;-83
2022/05/13 10:16:32;;;;;;;8.40;3.03;;;;;;;;;;4935387;29;20056;-83
2022/05/13 10:19:22;;;;;;;9.55;3.75;;;;;;;;;;4936875;29;20869;-83
2022/05/13 10:22:08;;;;;;;12.30;3.83;;;;;;;;;;4936442;29;20066;-83
2022/05/13 10:24:47;;;;;;;9.07;3.40;;;;;;;;;;4936903;29;20060;-84
2022/05/13 10:27:22;;;;;;;12.10;3.33;;;;;;;;;;4935788;29;20162;-84
2022/05/13 10:29:54;;;;;;;9.55;3.20;;;;;;;;;;4905775;29;20055;-84
2022/05/13 10:32:32;;;;;;;10.82;3.25;;;;;;;;;;4936296;29;20055;-83
2022/05/13 10:35:06;;;;;;;12.60;3.08;;;;;;;;;;4927845;29;20047;-84
2022/05/13 10:37:50;;;;;;;8.25;2.75;;;;;;;;;;4933827;29;20087;-84
2022/05/13 10:40:20;;;;;;;6.68;3.20;;;;;;;;;;4932780;29;20059;-83
2022/05/13 10:42:57;;;;;;;10.30;3.15;;;;;;;;;;4932432;29;20055;-84
2022/05/13 10:45:27;;;;;;;10.48;4.18;;;;;;;;;;4933801;29;20079;-84
2022/05/13 10:48:11;;;;;;;7.85;3.17;;;;;;;;;;4931428;29;20146;-84
2022/05/13 10:50:45;;;;;;;10.70;3.30;;;;;;;;;;4902604;29;20055;-83
2022/05/13 10:53:38;;;;;;;10.35;2.85;;;;;;;;;;4980103;28;20145;-85
2022/05/13 10:56:12;;;;;;;8.25;3.40;;;;;;;;;;5012048;28;20045;-85
2022/05/13 10:59:09;;;;;;;12.73;3.97;;;;;;;;;;5013788;28;20420;-84
2022/05/13 11:01:54;;;;;;;8.68;2.58;;;;;;;;;;5013774;28;20057;-84
2022/05/13 11:04:42;;;;;;;7.13;3.20;;;;;;;;;;5016923;28;20141;-84
2022/05/13 11:07:16;;;;;;;7.35;2.92;;;;;;;;;;5013499;28;20065;-84
2022/05/13 11:10:10;;;;;;;11.75;3.40;;;;;;;;;;5014644;28;20084;-84
2022/05/13 11:12:47;;;;;;;9.77;2.92;;;;;;;;;;5013968;28;20068;-85
2022/05/13 11:15:20;;;;;;;7.85;3.20;;;;;;;;;;5015253;28;20034;-86
2022/05/13 11:18:02;;;;;;;7.60;3.03;;;;;;;;;;4996458;28;20096;-85
2022/05/13 11:20:39;;;;;;;6.78;2.92;;;;;;;;;;5014157;28;20045;-85
2022/05/13 11:23:28;;;;;;;8.80;3.00;;;;;;;;;;5014968;28;20392;-84
2022/05/13 11:26:18;;;;;;;10.40;2.78;;;;;;;;;;5016725;28;20046;-82
2022/05/13 11:29:05;;;;;;;14.02;3.85;;;;;;;;;;5016508;28;20053;-83
2022/05/13 11:31:46;;;;;;;10.35;2.90;;;;;;;;;;5006800;28;20046;-83
2022/05/13 11:34:56;;;;;;;6.38;2.63;;;;;;;;;;5015081;28;20050;-83
2022/05/13 11:37:29;;;;;;;6.80;2.92;;;;;;;;;;4953251;28;20114;-83
2022/05/13 11:39:56;;;;;;;6.55;2.60;;;;;;;;;;4933202;29;20062;-83
2022/05/13 11:46:02;;;;;;;7.70;2.53;;;;;;;;;;4953711;29;20055;-81
2022/05/13 11:48:42;;;;;;;6.18;1.75;;;;;;;;;;4952793;28;20087;-81
2022/05/13 11:51:21;;;;;;;3.17;1.70;;;;;;;;;;4935690;29;20051;-81
2022/05/13 11:54:10;;;;;;;5.55;1.77;;;;;;;;;;4945215;29;20802;-82
2022/05/13 11:56:46;;;;;;;5.63;2.00;;;;;;;;;;4951484;28;20461;-82
2022/05/13 11:59:26;;;;;;;4.57;1.70;;;;;;;;;;4939507;29;20055;-81
2022/05/13 12:01:58;;;;;;;7.22;2.08;;;;;;;;;;4955115;29;20063;-82
2022/05/13 12:04:29;;;;;;;5.97;2.20;;;;;;;;;;4928229;28;20052;-83
2022/05/13 12:06:59;;;;;;;6.13;1.95;;;;;;;;;;4938937;28;20059;-83
2022/05/13 12:09:43;;;;;;;6.70;2.25;;;;;;;;;;4954746;28;20056;-82
2022/05/13 12:12:30;;;;;;;6.20;2.72;;;;;;;;;;4953788;28;20054;-82
2022/05/13 12:15:03;;;;;;;8.50;2.35;;;;;;;;;;4985257;28;20050;-81
2022/05/13 12:17:53;;;;;;;8.00;2.63;;;;;;;;;;4997519;28;20046;-82
2022/05/13 12:20:45;;;;;;;6.75;2.40;;;;;;;;;;5016366;28;20120;-81
2022/05/13 12:23:35;;;;;;;7.00;2.50;;;;;;;;;;5015816;28;20045;-84
2022/05/13 12:26:09;;;;;;;13.68;2.80;;;;;;;;;;4999684;28;20911;-82
2022/05/13 12:28:56;;;;;;;7.55;2.25;;;;;;;;;;5018364;28;20057;-81
2022/05/13 12:31:27;;;;;;;6.55;2.05;;;;;;;;;;4998092;28;20064;-82
2022/05/13 12:39:52;;;;;;;5.32;1.52;;;;;;;;;;4990296;28;20060;-80
2022/05/13 12:42:44;;;;;;;4.60;1.70;;;;;;;;;;5005046;28;20121;-82
2022/05/13 12:45:24;;;;;;;5.80;1.50;;;;;;;;;;5010125;28;20060;-80
2022/05/13 12:47:55;;;;;;;5.32;2.00;;;;;;;;;;4990163;28;20049;-79
2022/05/13 12:50:41;;;;;;;5.22;1.77;;;;;;;;;;5009570;28;20060;-80
2022/05/13 12:53:28;;;;;;;4.68;1.70;;;;;;;;;;5011810;28;20064;-81
2022/05/13 12:56:07;;;;;;;8.15;2.00;;;;;;;;;;5004506;28;20479;-81
2022/05/13 12:58:37;;;;;;;5.78;1.60;;;;;;;;;;4994051;28;20637;-80
2022/05/13 13:01:05;;;;;;;9.77;2.05;;;;;;;;;;5011793;28;20606;-79
2022/05/13 13:03:38;;;;;;;9.07;2.20;;;;;;;;;;5007788;28;20074;-84
2022/05/13 13:06:12;;;;;;;8.15;2.63;;;;;;;;;;5011905;28;20050;-83
2022/05/13 13:08:42;;;;;;;6.93;2.33;;;;;;;;;;5011144;28;20050;-84
2022/05/13 13:11:27;;;;;;;7.47;2.00;;;;;;;;;;5011604;28;20130;-84
2022/05/13 13:14:05;;;;;;;7.07;2.28;;;;;;;;;;5010052;28;20404;-84
2022/05/13 13:16:50;;;;;;;5.85;2.22;;;;;;;;;;4979629;28;20088;-84
2022/05/13 13:19:24;;;;;;;6.05;1.70;;;;;;;;;;4989072;28;20050;-84
2022/05/13 13:21:55;;;;;;;6.95;2.00;;;;;;;;;;5009600;28;20050;-84
2022/05/13 13:24:31;;;;;;;6.68;1.80;;;;;;;;;;4986552;28;20066;-84
2022/05/13 13:27:06;;;;;;;4.75;1.73;;;;;;;;;;5010675;28;20050;-84
2022/05/13 13:29:37;;;;;;;6.50;2.33;;;;;;;;;;5011259;28;20142;-84
2022/05/13 13:32:12;;;;;;;3.63;1.80;;;;;;;;;;4993609;28;20054;-83
2022/05/13 13:35:01;;;;;;;5.10;1.88;;;;;;;;;;4993363;28;20447;-83
2022/05/13 13:37:31;;;;;;;5.88;2.95;;;;;;;;;;5011695;28;20840;-84
2022/05/13 13:40:19;;;;;;;7.53;1.60;;;;;;;;;;5009953;28;20072;-84
2022/05/13 13:42:48;;;;;;;4.60;1.70;;;;;;;;;;4996419;28;20519;-85
2022/05/13 13:45:20;;;;;;;8.55;3.05;;;;;;;;;;5008762;28;20058;-83
2022/05/13 13:47:50;;;;;;;4.70;1.50;;;;;;;;;;5010718;28;20042;-84
2022/05/13 13:50:30;;;;;;;5.80;1.85;;;;;;;;;;5009716;28;20050;-84
2022/05/13 13:52:58;;;;;;;3.50;1.80;;;;;;;;;;5011460;28;20052;-83
2022/05/13 13:55:35;;;;;;;6.78;1.60;;;;;;;;;;4979459;28;20062;-83
2022/05/13 13:58:40;;;;;;;4.85;1.63;;;;;;;;;;5008898;28;20054;-83
2022/05/13 14:01:14;;;;;;;2.72;1.48;;;;;;;;;;4989619;28;20520;-83
2022/05/13 14:03:42;;;;;;;7.90;1.90;;;;;;;;;;5003854;28;20049;-83
2022/05/13 14:06:18;;;;;;;5.72;1.75;;;;;;;;;;4982281;28;20053;-83
2022/05/13 14:08:50;;;;;;;5.72;1.85;;;;;;;;;;4992920;28;20061;-84
2022/05/13 14:11:21;;;;;;;8.18;2.25;;;;;;;;;;4978088;28;20532;-84
2022/05/13 14:14:11;;;;;;;9.88;1.90;;;;;;;;;;5010641;28;20064;-84
2022/05/13 14:16:51;;;;;;;5.30;1.70;;;;;;;;;;4997928;28;20121;-84
2022/05/13 14:19:24;;;;;;;4.25;1.83;;;;;;;;;;5012947;28;20049;-84
2022/05/13 14:22:04;;;;;;;9.38;1.83;;;;;;;;;;4995609;28;20130;-84
2022/05/13 14:24:39;;;;;;;7.63;1.98;;;;;;;;;;5016139;28;20048;-84
2022/05/13 14:27:34;;;;;;;8.25;2.00;;;;;;;;;;5003087;28;20054;-84
2022/05/13 14:30:08;;;;;;;6.97;2.33;;;;;;;;;;5013912;28;20158;-84
2022/05/13 14:32:39;;;;;;;7.43;1.70;;;;;;;;;;4968746;28;20180;-84
2022/05/13 14:35:16;;;;;;;6.95;1.90;;;;;;;;;;4998716;28;20054;-84
2022/05/13 14:37:50;;;;;;;6.60;1.58;;;;;;;;;;5021756;28;20038;-84
2022/05/13 14:40:29;;;;;;;6.20;1.80;;;;;;;;;;5024532;28;20049;-84
2022/05/13 14:43:03;;;;;;;6.03;1.55;;;;;;;;;;5022923;28;20109;-84
2022/05/13 14:45:36;;;;;;;7.82;1.63;;;;;;;;;;5021505;28;20058;-83
2022/05/13 14:48:13;;;;;;;5.22;1.63;;;;;;;;;;5023136;28;20037;-83
2022/05/13 14:50:54;;;;;;;7.57;2.13;;;;;;;;;;5011405;28;20065;-84
2022/05/13 14:53:22;;;;;;;6.30;1.70;;;;;;;;;;5015236;28;20117;-84
2022/05/13 14:55:54;;;;;;;7.85;1.98;;;;;;;;;;4999073;28;20041;-84
2022/05/13 14:58:30;;;;;;;8.68;1.75;;;;;;;;;;5015991;28;20061;-84
2022/05/13 15:01:24;;;;;;;4.97;1.58;;;;;;;;;;5005607;28;20074;-83
2022/05/13 15:04:01;;;;;;;7.30;1.92;;;;;;;;;;5015680;28;20049;-83
2022/05/13 15:06:28;;;;;;;6.45;1.83;;;;;;;;;;4998362;28;20042;-84
2022/05/13 15:09:22;;;;;;;6.35;1.80;;;;;;;;;;4975674;28;20061;-84
2022/05/13 15:11:55;;;;;;;7.35;1.80;;;;;;;;;;5013603;28;20046;-84
2022/05/13 15:14:25;;;;;;;9.45;2.22;;;;;;;;;;4990114;28;20069;-84
2022/05/13 15:16:55;;;;;;;4.60;1.60;;;;;;;;;;5014011;28;20034;-84
2022/05/13 15:19:30;;;;;;;10.48;1.65;;;;;;;;;;5004533;28;20058;-84
2022/05/13 15:22:03;;;;;;;5.97;1.60;;;;;;;;;;5015684;28;20038;-84
2022/05/13 15:24:36;;;;;;;9.05;1.65;;;;;;;;;;5015920;28;20053;-84
2022/05/13 15:27:09;;;;;;;5.82;1.80;;;;;;;;;;5012783;28;20471;-83
2022/05/13 15:29:38;;;;;;;7.13;1.38;;;;;;;;;;5012163;28;20558;-84
2022/05/13 15:32:08;;;;;;;9.18;1.85;;;;;;;;;;5013680;28;20061;-81
2022/05/13 15:34:36;;;;;;;5.05;1.30;;;;;;;;;;5015903;28;20268;-80
2022/05/13 15:37:05;;;;;;;6.07;1.63;;;;;;;;;;5026873;28;20050;-80
2022/05/13 15:39:34;;;;;;;5.72;1.50;;;;;;;;;;5027389;28;20065;-80
2022/05/13 15:42:05;;;;;;;6.93;2.05;;;;;;;;;;5028518;28;20291;-80
2022/05/13 15:44:33;;;;;;;10.90;2.08;;;;;;;;;;5027699;28;20062;-80
2022/05/13 15:47:02;;;;;;;6.75;1.70;;;;;;;;;;5030490;28;20105;-81
2022/05/13 15:52:41;;;;;;;7.20;1.52;;;;;;;;;;5028780;28;20057;-80